createdAt,value
2018-12-17T00:00:39.809Z,68.69
2018-12-17T00:03:14.434Z,68.63
2018-12-17T00:05:51.931Z,69.02
2018-12-17T00:08:31.976Z,69.22
2018-12-17T00:11:05.345Z,68.54
2018-12-17T00:13:44.322Z,69.22
2018-12-17T00:16:16.649Z,69.35
2018-12-17T00:18:48.309Z,69.29
2018-12-17T00:21:25.319Z,69.42
2018-12-17T00:24:00.440Z,69.90
2018-12-17T00:26:32.759Z,69.75
2018-12-17T00:29:09.642Z,69.63
2018-12-17T00:31:41.103Z,69.73
2018-12-17T00:34:12.605Z,69.29
2018-12-17T00:36:52.646Z,69.41
2018-12-17T00:39:27.756Z,69.44
2018-12-17T00:42:03.960Z,69.63
2018-12-17T00:44:39.185Z,69.41
2018-12-17T00:47:13.663Z,69.96
2018-12-17T00:49:48.571Z,70.12
2018-12-17T00:52:19.936Z,69.78
2018-12-17T00:54:51.597Z,69.98
2018-12-17T00:57:23.165Z,70.35
2018-12-17T01:00:03.669Z,69.95
2018-12-17T01:02:42.138Z,70.31
2018-12-17T01:05:13.586Z,70.24
2018-12-17T01:07:50.596Z,70.56
2018-12-17T01:10:34.173Z,70.45
2018-12-17T01:13:11.551Z,70.26
2018-12-17T01:15:53.383Z,70.78
2018-12-17T01:18:30.319Z,70.51
2018-12-17T01:21:08.958Z,70.45
2018-12-17T01:23:40.636Z,71.15
2018-12-17T01:26:16.055Z,71.06
2018-12-17T01:28:50.594Z,71.24
2018-12-17T01:31:22.196Z,71.80
2018-12-17T01:33:53.587Z,71.13
2018-12-17T01:36:26.465Z,71.70
2018-12-17T01:38:58.405Z,69.14
2018-12-17T01:41:31.258Z,68.40
2018-12-17T01:44:02.824Z,67.43
2018-12-17T01:46:34.564Z,67.38
2018-12-17T01:49:06.329Z,67.02
2018-12-17T01:51:37.867Z,67.52
2018-12-17T01:54:09.287Z,67.09
2018-12-17T01:56:41.468Z,66.43
2018-12-17T01:59:13.177Z,66.66
2018-12-17T02:01:44.789Z,66.65
2018-12-17T02:04:16.333Z,66.90
2018-12-17T02:06:48.103Z,66.24
2018-12-17T02:09:19.883Z,66.20
2018-12-17T02:11:51.265Z,66.83
2018-12-17T02:14:22.769Z,65.92
2018-12-17T02:16:55.125Z,66.22
2018-12-17T02:19:26.495Z,66.43
2018-12-17T02:21:58.007Z,66.26
2018-12-17T02:24:29.375Z,66.06
2018-12-17T02:27:00.970Z,66.76
2018-12-17T02:29:32.449Z,66.43
2018-12-17T02:32:04.301Z,66.69
2018-12-17T02:34:36.770Z,66.61
2018-12-17T02:37:08.450Z,66.45
2018-12-17T02:39:40.516Z,66.37
2018-12-17T02:42:12.475Z,66.36
2018-12-17T02:44:43.844Z,66.07
2018-12-17T02:47:15.431Z,65.87
2018-12-17T02:49:46.888Z,66.12
2018-12-17T02:52:18.347Z,66.25
2018-12-17T02:54:50.169Z,66.29
2018-12-17T02:57:22.481Z,65.73
2018-12-17T02:59:53.955Z,66.01
2018-12-17T03:02:25.718Z,66.20
2018-12-17T03:04:57.874Z,66.69
2018-12-17T03:07:29.626Z,66.94
2018-12-17T03:10:02.376Z,66.82
2018-12-17T03:12:35.926Z,67.59
2018-12-17T03:15:08.367Z,67.33
2018-12-17T03:17:40.245Z,67.51
2018-12-17T03:20:13.003Z,67.65
2018-12-17T03:22:45.015Z,67.79
2018-12-17T03:25:16.677Z,67.42
2018-12-17T03:27:48.067Z,68.05
2018-12-17T03:30:19.383Z,66.95
2018-12-17T03:32:50.925Z,67.87
2018-12-17T03:35:22.292Z,67.76
2018-12-17T03:37:54.919Z,67.28
2018-12-17T03:40:27.031Z,67.11
2018-12-17T03:42:58.512Z,67.44
2018-12-17T03:45:29.948Z,67.96
2018-12-17T03:48:01.378Z,67.55
2018-12-17T03:50:32.813Z,68.06
2018-12-17T03:53:04.199Z,67.94
2018-12-17T03:55:35.904Z,67.79
2018-12-17T03:58:07.413Z,67.33
2018-12-17T04:00:38.793Z,68.04
2018-12-17T04:03:10.527Z,67.37
2018-12-17T04:05:42.460Z,67.75
2018-12-17T04:08:14.352Z,67.65
2018-12-17T04:10:46.064Z,66.42
2018-12-17T04:13:18.715Z,67.25
2018-12-17T04:15:50.215Z,67.07
2018-12-17T04:18:22.510Z,67.83
2018-12-17T04:20:54.211Z,67.52
2018-12-17T04:23:25.983Z,67.51
2018-12-17T04:25:59.726Z,67.67
2018-12-17T04:28:31.630Z,67.67
2018-12-17T04:31:02.902Z,68.48
2018-12-17T04:33:35.091Z,68.48
2018-12-17T04:36:06.471Z,68.38
2018-12-17T04:38:38.020Z,68.34
2018-12-17T04:41:09.799Z,69.19
2018-12-17T04:43:41.251Z,68.49
2018-12-17T04:46:12.660Z,68.27
2018-12-17T04:48:44.284Z,68.67
2018-12-17T04:51:15.545Z,67.87
2018-12-17T04:53:46.927Z,67.89
2018-12-17T04:56:18.300Z,68.62
2018-12-17T04:58:49.877Z,68.10
2018-12-17T05:01:21.389Z,67.87
2018-12-17T05:03:52.967Z,68.32
2018-12-17T05:06:25.066Z,68.06
2018-12-17T05:08:56.886Z,67.93
2018-12-17T05:11:28.830Z,68.26
2018-12-17T05:14:01.121Z,67.98
2018-12-17T05:16:32.456Z,68.07
2018-12-17T05:19:04.073Z,67.96
2018-12-17T05:21:36.124Z,67.47
2018-12-17T05:24:07.731Z,67.21
2018-12-17T05:26:39.270Z,68.04
2018-12-17T05:29:11.475Z,68.17
2018-12-17T05:31:43.012Z,67.67
2018-12-17T05:34:15.377Z,67.46
2018-12-17T05:36:47.176Z,67.92
2018-12-17T05:39:19.095Z,67.88
2018-12-17T05:41:51.708Z,68.11
2018-12-17T05:44:23.975Z,68.45
2018-12-17T05:46:55.864Z,68.80
2018-12-17T05:49:28.009Z,69.67
2018-12-17T05:52:03.561Z,69.94
2018-12-17T05:54:39.278Z,68.90
2018-12-17T05:57:12.936Z,69.36
2018-12-17T05:59:48.762Z,69.25
2018-12-17T06:02:23.804Z,69.30
2018-12-17T06:05:00.361Z,68.81
2018-12-17T06:07:35.402Z,69.28
2018-12-17T06:10:09.625Z,69.65
2018-12-17T06:12:43.147Z,69.92
2018-12-17T06:15:17.999Z,69.60
2018-12-17T06:17:52.840Z,69.75
2018-12-17T06:20:27.905Z,69.15
2018-12-17T06:23:02.656Z,69.59
2018-12-17T06:25:34.538Z,69.51
2018-12-17T06:28:06.274Z,69.68
2018-12-17T06:30:39.519Z,70.08
2018-12-17T06:33:15.706Z,69.92
2018-12-17T06:35:48.508Z,69.82
2018-12-17T06:38:22.573Z,70.22
2018-12-17T06:41:00.570Z,70.23
2018-12-17T06:43:33.170Z,69.67
2018-12-17T06:46:15.047Z,69.89
2018-12-17T06:48:47.552Z,70.36
2018-12-17T06:51:23.135Z,69.70
2018-12-17T06:53:54.733Z,70.64
2018-12-17T06:56:26.801Z,69.48
2018-12-17T06:58:58.461Z,70.10
2018-12-17T07:01:33.944Z,69.56
2018-12-17T07:04:12.786Z,69.49
2018-12-17T07:06:44.477Z,69.07
2018-12-17T07:09:16.472Z,69.10
2018-12-17T07:11:48.556Z,69.41
2018-12-17T07:14:20.431Z,69.47
2018-12-17T07:16:52.034Z,69.24
2018-12-17T07:19:24.895Z,68.98
2018-12-17T07:21:56.566Z,69.20
2018-12-17T07:24:27.909Z,69.14
2018-12-17T07:26:59.505Z,68.85
2018-12-17T07:29:31.090Z,69.26
2018-12-17T07:32:04.792Z,69.08
2018-12-17T07:34:38.300Z,69.54
2018-12-17T07:37:10.753Z,69.31
2018-12-17T07:39:42.398Z,69.35
2018-12-17T07:42:16.115Z,69.40
2018-12-17T07:44:48.418Z,67.91
2018-12-17T07:47:20.048Z,63.46
2018-12-17T07:49:52.571Z,63.66
2018-12-17T07:52:25.427Z,65.57
2018-12-17T07:54:57.515Z,65.98
2018-12-17T07:57:30.795Z,67.12
2018-12-17T08:00:08.920Z,67.43
2018-12-17T08:02:41.008Z,65.00
2018-12-17T08:05:12.554Z,66.76
2018-12-17T08:07:44.785Z,65.91
2018-12-17T08:10:16.238Z,65.55
2018-12-17T08:12:52.616Z,64.97
2018-12-17T08:15:24.614Z,65.40
2018-12-17T08:18:34.782Z,65.95
2018-12-17T08:21:07.488Z,67.44
2018-12-17T08:23:40.100Z,66.81
2018-12-17T08:26:15.356Z,66.63
2018-12-17T08:28:53.756Z,65.46
2018-12-17T08:31:25.704Z,63.84
2018-12-17T08:34:02.429Z,62.04
2018-12-17T08:36:36.134Z,62.31
2018-12-17T08:39:09.121Z,63.96
2018-12-17T08:41:41.048Z,64.73
2018-12-17T08:44:13.459Z,64.99
2018-12-17T08:46:49.870Z,65.62
2018-12-17T08:49:21.935Z,65.88
2018-12-17T08:51:53.540Z,64.69
2018-12-17T08:54:25.701Z,64.36
2018-12-17T08:56:59.683Z,65.04
2018-12-17T08:59:33.564Z,64.62
2018-12-17T09:02:11.032Z,64.40
2018-12-17T09:07:40.395Z,64.37
2018-12-17T09:10:12.107Z,63.13
2018-12-17T09:12:43.800Z,63.09
2018-12-17T09:15:16.565Z,62.80
2018-12-17T09:17:48.581Z,63.05
2018-12-17T09:20:20.324Z,62.91
2018-12-17T09:22:53.430Z,62.85
2018-12-17T09:25:25.252Z,62.03
2018-12-17T09:27:57.630Z,62.91
2018-12-17T09:30:33.031Z,62.91
2018-12-17T09:33:07.886Z,63.46
2018-12-17T09:35:39.507Z,62.44
2018-12-17T09:38:11.069Z,62.27
2018-12-17T09:40:44.475Z,62.05
2018-12-17T09:43:16.284Z,61.20
2018-12-17T09:45:48.040Z,61.42
2018-12-17T09:48:20.119Z,61.55
2018-12-17T09:50:51.856Z,61.90
2018-12-17T09:53:24.680Z,61.81
2018-12-17T09:55:56.273Z,61.96
2018-12-17T09:58:29.227Z,62.68
2018-12-17T10:01:12.253Z,62.03
2018-12-17T10:03:48.274Z,62.16
2018-12-17T10:06:20.438Z,62.91
2018-12-17T10:08:54.895Z,62.85
2018-12-17T10:11:26.354Z,62.68
2018-12-17T10:13:58.241Z,62.19
2018-12-17T10:16:30.595Z,62.89
2018-12-17T10:19:02.741Z,63.24
2018-12-17T10:21:37.719Z,62.29
2018-12-17T10:24:09.865Z,62.86
2018-12-17T10:26:41.731Z,62.84
2018-12-17T10:29:14.474Z,62.32
2018-12-17T10:31:46.487Z,62.62
2018-12-17T10:34:18.153Z,63.04
2018-12-17T10:36:49.648Z,63.19
2018-12-17T10:39:23.215Z,63.61
2018-12-17T10:41:54.998Z,63.21
2018-12-17T10:44:28.659Z,64.51
2018-12-17T10:47:03.633Z,64.91
2018-12-17T10:49:35.927Z,65.02
2018-12-17T10:52:17.325Z,65.10
2018-12-17T10:54:49.225Z,64.58
2018-12-17T10:57:28.900Z,65.16
2018-12-17T11:00:00.850Z,64.60
2018-12-17T11:02:35.771Z,64.86
2018-12-17T11:05:14.107Z,64.83
2018-12-17T11:07:45.698Z,65.27
2018-12-17T11:10:18.061Z,65.28
2018-12-17T11:12:49.920Z,65.64
2018-12-17T11:15:21.404Z,65.36
2018-12-17T11:18:03.107Z,65.23
2018-12-17T11:20:35.424Z,65.78
2018-12-17T11:23:12.366Z,65.60
2018-12-17T11:25:44.576Z,65.84
2018-12-17T11:28:17.205Z,66.11
2018-12-17T11:30:52.062Z,65.68
2018-12-17T11:33:23.868Z,66.16
2018-12-17T11:35:56.331Z,65.44
2018-12-17T11:38:33.838Z,65.31
2018-12-17T11:41:14.996Z,65.36
2018-12-17T11:43:50.813Z,65.65
2018-12-17T11:46:22.797Z,65.81
2018-12-17T11:49:00.658Z,66.01
2018-12-17T11:51:33.227Z,65.99
2018-12-17T11:54:05.162Z,65.43
2018-12-17T11:58:45.743Z,65.57
2018-12-17T12:01:20.571Z,66.64
2018-12-17T12:03:52.449Z,66.27
2018-12-17T12:06:24.051Z,66.89
2018-12-17T12:08:55.846Z,67.02
2018-12-17T12:11:29.307Z,66.81
2018-12-17T12:14:01.849Z,66.47
2018-12-17T12:16:35.154Z,66.34
2018-12-17T12:19:07.121Z,66.07
2018-12-17T12:21:39.925Z,66.39
2018-12-17T12:24:11.479Z,66.28
2018-12-17T12:26:43.327Z,66.08
2018-12-17T12:29:16.453Z,66.05
2018-12-17T12:31:48.127Z,66.25
2018-12-17T12:34:19.741Z,65.86
2018-12-17T12:36:51.634Z,66.31
2018-12-17T12:39:23.485Z,65.00
2018-12-17T12:41:55.178Z,65.58
2018-12-17T12:44:26.750Z,66.21
2018-12-17T12:47:01.781Z,66.09
2018-12-17T12:49:33.353Z,65.60
2018-12-17T12:52:05.383Z,66.00
2018-12-17T12:54:37.230Z,65.86
2018-12-17T12:57:08.857Z,65.71
2018-12-17T12:59:41.539Z,66.22
2018-12-17T13:02:13.253Z,65.32
2018-12-17T13:04:44.604Z,65.64
2018-12-17T13:07:16.791Z,65.42
2018-12-17T13:09:48.715Z,65.63
2018-12-17T13:12:20.391Z,65.77
2018-12-17T13:14:51.662Z,66.34
2018-12-17T13:17:29.790Z,66.01
2018-12-17T13:20:01.268Z,65.77
2018-12-17T13:22:33.579Z,66.71
2018-12-17T13:25:06.577Z,66.55
2018-12-17T13:27:38.416Z,67.06
2018-12-17T13:30:11.309Z,67.11
2018-12-17T13:32:43.239Z,66.74
2018-12-17T13:35:14.947Z,67.00
2018-12-17T13:37:46.366Z,66.67
2018-12-17T13:40:17.624Z,66.83
2018-12-17T13:42:49.819Z,67.68
2018-12-17T13:45:28.116Z,67.73
2018-12-17T13:48:03.260Z,68.33
2018-12-17T13:50:39.567Z,68.67
2018-12-17T13:53:20.138Z,67.95
2018-12-17T13:55:55.400Z,68.00
2018-12-17T13:58:28.812Z,68.27
2018-12-17T14:01:03.998Z,68.70
2018-12-17T14:03:45.800Z,68.82
2018-12-17T14:06:18.380Z,69.25
2018-12-17T14:08:54.912Z,69.17
2018-12-17T14:11:31.768Z,69.85
2018-12-17T14:14:06.656Z,69.22
2018-12-17T14:16:45.798Z,69.43
2018-12-17T14:19:23.337Z,69.52
2018-12-17T14:22:03.618Z,69.40
2018-12-17T14:24:40.513Z,69.57
2018-12-17T14:27:12.000Z,69.95
2018-12-17T14:29:43.624Z,69.70
2018-12-17T14:32:15.030Z,69.90
2018-12-17T14:34:49.770Z,70.09
2018-12-17T14:37:21.721Z,70.42
2018-12-17T14:39:54.369Z,70.56
2018-12-17T14:42:27.954Z,70.00
2018-12-17T14:45:04.769Z,70.87
2018-12-17T14:47:40.183Z,70.69
2018-12-17T14:50:16.524Z,70.21
2018-12-17T14:52:53.103Z,70.41
2018-12-17T14:55:28.365Z,70.72
2018-12-17T14:58:00.026Z,71.25
2018-12-17T15:00:33.551Z,70.37
2018-12-17T15:03:11.937Z,70.55
2018-12-17T15:05:45.640Z,70.54
2018-12-17T15:08:17.021Z,71.05
2018-12-17T15:11:03.685Z,71.14
2018-12-17T15:13:37.191Z,71.57
2018-12-17T15:16:12.170Z,71.20
2018-12-17T15:21:51.324Z,71.46
2018-12-17T15:24:30.017Z,70.80
2018-12-17T15:27:03.927Z,71.42
2018-12-17T15:29:39.109Z,71.32
2018-12-17T15:32:15.616Z,70.76
2018-12-17T15:34:47.091Z,71.37
2018-12-17T15:37:19.119Z,71.02
2018-12-17T15:39:50.541Z,71.01
2018-12-17T15:42:22.198Z,71.29
2018-12-17T15:44:53.605Z,71.83
2018-12-17T15:47:26.187Z,71.87
2018-12-17T15:50:02.184Z,71.57
2018-12-17T15:52:39.188Z,72.01
2018-12-17T15:55:19.228Z,71.71
2018-12-17T15:58:00.929Z,72.10
2018-12-17T16:00:41.297Z,72.07
2018-12-17T16:03:12.826Z,71.75
2018-12-17T16:05:44.268Z,72.18
2018-12-17T16:08:15.624Z,72.60
2018-12-17T16:10:47.060Z,72.86
2018-12-17T16:13:22.606Z,72.24
2018-12-17T16:15:53.946Z,72.93
2018-12-17T16:18:25.407Z,73.13
2018-12-17T16:20:56.900Z,72.32
2018-12-17T16:23:28.391Z,73.01
2018-12-17T16:25:59.757Z,72.64
2018-12-17T16:28:31.861Z,72.51
2018-12-17T16:31:04.393Z,72.71
2018-12-17T16:33:35.950Z,73.07
2018-12-17T16:36:08.391Z,73.10
2018-12-17T16:38:43.756Z,73.50
2018-12-17T16:41:15.181Z,72.84
2018-12-17T16:43:47.647Z,72.39
2018-12-17T16:46:22.753Z,72.23
2018-12-17T16:48:54.258Z,72.75
2018-12-17T16:51:31.862Z,73.03
2018-12-17T16:54:06.799Z,73.09
2018-12-17T16:56:39.156Z,72.93
2018-12-17T16:59:20.602Z,73.04
2018-12-17T17:01:52.033Z,73.41
2018-12-17T17:04:27.274Z,72.91
2018-12-17T17:07:00.733Z,72.73
2018-12-17T17:09:32.289Z,72.55
2018-12-17T17:12:04.619Z,73.30
2018-12-17T17:14:37.303Z,73.30
2018-12-17T17:17:08.730Z,73.40
2018-12-17T17:19:50.668Z,73.40
2018-12-17T17:22:18.761Z,73.86
2018-12-17T17:24:55.157Z,73.62
2018-12-17T17:27:26.668Z,72.99
2018-12-17T17:29:58.633Z,72.74
2018-12-17T17:32:30.082Z,72.69
2018-12-17T17:35:01.833Z,72.92
2018-12-17T17:37:37.532Z,71.86
2018-12-17T17:40:10.229Z,72.02
2018-12-17T17:42:41.619Z,72.02
2018-12-17T17:45:13.100Z,71.37
2018-12-17T17:47:44.609Z,71.16
2018-12-17T17:50:19.682Z,71.02
2018-12-17T17:52:52.115Z,71.22
2018-12-17T17:55:26.850Z,70.83
2018-12-17T17:57:58.395Z,70.41
2018-12-17T18:00:36.690Z,71.18
2018-12-17T18:03:11.815Z,70.82
2018-12-17T18:05:58.024Z,70.69
2018-12-17T18:08:29.257Z,70.43
2018-12-17T18:11:00.733Z,70.39
2018-12-17T18:13:41.420Z,70.18
2018-12-17T18:16:16.552Z,70.97
2018-12-17T18:18:53.695Z,70.94
2018-12-17T18:21:25.227Z,71.33
2018-12-17T18:23:56.643Z,71.43
2018-12-17T18:26:32.732Z,71.71
2018-12-17T18:29:05.915Z,71.11
2018-12-17T18:31:39.038Z,71.16
2018-12-17T18:34:10.607Z,71.16
2018-12-17T18:36:52.461Z,71.47
2018-12-17T18:39:27.065Z,71.12
2018-12-17T18:42:00.514Z,70.50
2018-12-17T18:44:32.009Z,70.23
2018-12-17T18:47:04.497Z,70.00
2018-12-17T18:49:37.967Z,70.61
2018-12-17T18:52:10.327Z,70.57
2018-12-17T18:57:22.850Z,70.53
2018-12-17T18:59:54.148Z,71.14
2018-12-17T19:02:33.215Z,70.88
2018-12-17T19:05:10.552Z,70.99
2018-12-17T19:10:14.038Z,70.78
2018-12-17T19:12:46.773Z,71.02
2018-12-17T19:15:18.204Z,70.46
2018-12-17T19:18:04.507Z,69.69
2018-12-17T19:20:40.257Z,69.64
2018-12-17T19:23:18.275Z,69.73
2018-12-17T19:25:49.756Z,69.23
2018-12-17T19:28:22.226Z,69.61
2018-12-17T19:31:02.275Z,69.32
2018-12-17T19:33:39.025Z,69.79
2018-12-17T19:36:19.758Z,69.12
2018-12-17T19:38:56.140Z,69.40
2018-12-17T19:41:34.292Z,69.43
2018-12-17T19:44:12.072Z,69.21
2018-12-17T19:46:47.067Z,69.37
2018-12-17T19:49:19.743Z,68.94
2018-12-17T19:51:51.193Z,68.74
2018-12-17T19:54:27.896Z,69.46
2018-12-17T19:57:02.679Z,69.62
2018-12-17T19:59:34.273Z,69.50
2018-12-17T20:02:12.911Z,70.03
2018-12-17T20:04:56.480Z,70.13
2018-12-17T20:07:28.081Z,70.50
2018-12-17T20:10:00.649Z,70.47
2018-12-17T20:12:38.795Z,70.49
2018-12-17T20:15:12.357Z,70.37
2018-12-17T20:17:50.071Z,70.46
2018-12-17T20:20:25.276Z,70.36
2018-12-17T20:26:05.177Z,70.00
2018-12-17T20:28:43.633Z,70.10
2018-12-17T20:31:24.766Z,69.81
2018-12-17T20:34:08.819Z,69.41
2018-12-17T20:36:51.718Z,69.47
2018-12-17T20:39:28.154Z,69.50
2018-12-17T20:42:09.958Z,69.75
2018-12-17T20:44:43.695Z,69.02
2018-12-17T20:47:19.930Z,69.33
2018-12-17T20:50:02.145Z,69.01
2018-12-17T20:52:35.765Z,68.62
2018-12-17T20:55:12.700Z,68.40
2018-12-17T20:57:44.324Z,68.80
2018-12-17T21:00:27.838Z,67.51
2018-12-17T21:03:00.670Z,68.39
2018-12-17T21:05:38.534Z,67.66
2018-12-17T21:08:11.558Z,68.07
2018-12-17T21:10:45.061Z,68.12
2018-12-17T21:13:21.926Z,67.30
2018-12-17T21:15:53.387Z,67.53
2018-12-17T21:18:34.193Z,67.34
2018-12-17T21:21:05.665Z,68.18
2018-12-17T21:23:41.255Z,67.56
2018-12-17T21:26:13.752Z,67.48
2018-12-17T21:29:01.173Z,68.08
2018-12-17T21:31:42.620Z,68.14
2018-12-17T21:34:15.319Z,67.49
2018-12-17T21:36:47.968Z,67.79
2018-12-17T21:42:22.818Z,67.55
2018-12-17T21:47:37.452Z,67.61
2018-12-17T21:50:13.768Z,66.96
2018-12-17T21:52:56.826Z,67.44
2018-12-17T21:55:41.594Z,67.00
2018-12-17T21:58:14.231Z,67.61
2018-12-17T22:00:57.750Z,67.46
2018-12-17T22:06:30.608Z,66.90
2018-12-17T22:09:05.811Z,67.17
2018-12-17T22:14:39.413Z,67.51
2018-12-17T22:17:21.802Z,67.80
2018-12-17T22:20:05.547Z,67.40
2018-12-17T22:22:45.685Z,66.99
2018-12-17T22:25:20.946Z,67.10
2018-12-17T22:27:56.207Z,67.48
2018-12-17T22:30:29.256Z,66.85
2018-12-17T22:33:07.127Z,67.55
2018-12-17T22:35:41.862Z,67.64
2018-12-17T22:38:14.342Z,67.33
2018-12-17T22:40:52.996Z,67.12
2018-12-17T22:46:35.845Z,67.28
2018-12-17T22:49:10.635Z,66.99
2018-12-17T22:51:52.527Z,66.69
2018-12-17T22:54:26.069Z,66.61
2018-12-17T22:56:57.340Z,67.36
2018-12-17T22:59:47.741Z,67.00
2018-12-17T23:05:47.074Z,67.59
2018-12-17T23:08:33.337Z,67.49
2018-12-17T23:11:16.073Z,67.17
2018-12-17T23:14:02.128Z,66.97
2018-12-17T23:19:46.483Z,67.35
2018-12-17T23:25:40.001Z,66.80
2018-12-17T23:28:22.004Z,67.26
2018-12-17T23:30:54.495Z,67.19
2018-12-17T23:33:42.713Z,67.12
2018-12-17T23:36:25.705Z,66.72
2018-12-17T23:38:58.126Z,66.85
2018-12-17T23:41:29.646Z,66.87
2018-12-17T23:44:07.782Z,67.37
2018-12-17T23:47:01.406Z,67.13
2018-12-17T23:49:38.391Z,67.32
2018-12-17T23:52:17.766Z,67.31
2018-12-17T23:54:52.271Z,67.03
2018-12-17T23:57:32.870Z,67.15
